sensor_id;sensor_type;location;lat;lon;timestamp;temperature;humidity
5176;DHT22;2607;50.934;6.934;2022-07-21T00:01:32;20.80;99.90
5176;DHT22;2607;50.934;6.934;2022-07-21T00:03:57;20.70;99.90
5176;DHT22;2607;50.934;6.934;2022-07-21T00:06:23;20.70;99.90
5176;DHT22;2607;50.934;6.934;2022-07-21T00:08:49;20.70;99.90
5176;DHT22;2607;50.934;6.934;2022-07-21T00:11:14;20.70;99.90
5176;DHT22;2607;50.934;6.934;2022-07-21T00:13:40;20.70;99.90
5176;DHT22;2607;50.934;6.934;2022-07-21T00:16:06;20.70;99.90
5176;DHT22;2607;50.934;6.934;2022-07-21T00:18:32;20.60;99.90
5176;DHT22;2607;50.934;6.934;2022-07-21T00:20:58;20.60;99.90
5176;DHT22;2607;50.934;6.934;2022-07-21T00:23:24;20.60;99.90
5176;DHT22;2607;50.934;6.934;2022-07-21T00:25:50;20.60;99.90
5176;DHT22;2607;50.934;6.934;2022-07-21T00:28:16;20.50;99.90
5176;DHT22;2607;50.934;6.934;2022-07-21T00:30:42;20.50;99.90
5176;DHT22;2607;50.934;6.934;2022-07-21T00:33:08;20.40;99.90
5176;DHT22;2607;50.934;6.934;2022-07-21T00:35:34;20.40;99.90
5176;DHT22;2607;50.934;6.934;2022-07-21T00:37:59;20.40;99.90
5176;DHT22;2607;50.934;6.934;2022-07-21T00:40:26;20.40;99.90
5176;DHT22;2607;50.934;6.934;2022-07-21T00:42:51;20.30;99.90
5176;DHT22;2607;50.934;6.934;2022-07-21T00:45:17;20.30;99.90
5176;DHT22;2607;50.934;6.934;2022-07-21T00:47:43;20.40;99.90
5176;DHT22;2607;50.934;6.934;2022-07-21T00:50:13;20.30;99.90
5176;DHT22;2607;50.934;6.934;2022-07-21T00:52:39;20.40;99.90
5176;DHT22;2607;50.934;6.934;2022-07-21T00:55:06;20.30;99.90
5176;DHT22;2607;50.934;6.934;2022-07-21T00:57:34;20.30;99.90
5176;DHT22;2607;50.934;6.934;2022-07-21T01:00:01;20.30;99.90
5176;DHT22;2607;50.934;6.934;2022-07-21T01:02:27;20.30;99.90
5176;DHT22;2607;50.934;6.934;2022-07-21T01:04:54;20.30;99.90
5176;DHT22;2607;50.934;6.934;2022-07-21T01:07:20;20.30;99.90
5176;DHT22;2607;50.934;6.934;2022-07-21T01:09:46;20.30;99.90
5176;DHT22;2607;50.934;6.934;2022-07-21T01:12:11;20.30;99.90
5176;DHT22;2607;50.934;6.934;2022-07-21T01:14:38;20.30;99.90
5176;DHT22;2607;50.934;6.934;2022-07-21T01:17:04;20.30;99.90
5176;DHT22;2607;50.934;6.934;2022-07-21T01:19:30;20.30;99.90
5176;DHT22;2607;50.934;6.934;2022-07-21T01:21:55;20.30;99.90
5176;DHT22;2607;50.934;6.934;2022-07-21T01:24:21;20.30;99.90
5176;DHT22;2607;50.934;6.934;2022-07-21T01:26:50;20.30;99.90
5176;DHT22;2607;50.934;6.934;2022-07-21T01:29:18;20.30;99.90
5176;DHT22;2607;50.934;6.934;2022-07-21T01:31:46;20.20;99.90
5176;DHT22;2607;50.934;6.934;2022-07-21T01:34:12;20.20;99.90
5176;DHT22;2607;50.934;6.934;2022-07-21T01:36:38;20.20;99.90
5176;DHT22;2607;50.934;6.934;2022-07-21T01:39:05;20.20;99.90
5176;DHT22;2607;50.934;6.934;2022-07-21T01:41:49;20.20;99.90
5176;DHT22;2607;50.934;6.934;2022-07-21T01:44:15;20.10;99.90
5176;DHT22;2607;50.934;6.934;2022-07-21T01:46:43;20.10;99.90
5176;DHT22;2607;50.934;6.934;2022-07-21T01:49:13;20.10;99.90
5176;DHT22;2607;50.934;6.934;2022-07-21T01:51:39;20.10;99.90
5176;DHT22;2607;50.934;6.934;2022-07-21T01:54:06;20.10;99.90
5176;DHT22;2607;50.934;6.934;2022-07-21T01:56:33;20.00;99.90
5176;DHT22;2607;50.934;6.934;2022-07-21T01:58:58;20.00;99.90
5176;DHT22;2607;50.934;6.934;2022-07-21T02:01:26;20.00;99.90
5176;DHT22;2607;50.934;6.934;2022-07-21T02:03:53;20.00;99.90
5176;DHT22;2607;50.934;6.934;2022-07-21T02:06:18;20.00;99.90
5176;DHT22;2607;50.934;6.934;2022-07-21T02:08:44;20.00;99.90
5176;DHT22;2607;50.934;6.934;2022-07-21T02:11:11;20.00;99.90
5176;DHT22;2607;50.934;6.934;2022-07-21T02:13:38;20.00;99.90
5176;DHT22;2607;50.934;6.934;2022-07-21T02:16:04;19.90;99.90
5176;DHT22;2607;50.934;6.934;2022-07-21T02:18:30;19.90;99.90
5176;DHT22;2607;50.934;6.934;2022-07-21T02:20:56;19.90;99.90
5176;DHT22;2607;50.934;6.934;2022-07-21T02:23:23;19.90;99.90
5176;DHT22;2607;50.934;6.934;2022-07-21T02:25:49;19.90;99.90
5176;DHT22;2607;50.934;6.934;2022-07-21T02:28:15;19.90;99.90
5176;DHT22;2607;50.934;6.934;2022-07-21T02:30:41;19.80;99.90
5176;DHT22;2607;50.934;6.934;2022-07-21T02:33:07;19.80;99.90
5176;DHT22;2607;50.934;6.934;2022-07-21T02:35:33;19.80;99.90
5176;DHT22;2607;50.934;6.934;2022-07-21T02:37:59;19.80;99.90
5176;DHT22;2607;50.934;6.934;2022-07-21T02:40:25;19.80;99.90
5176;DHT22;2607;50.934;6.934;2022-07-21T02:42:51;19.80;99.90
5176;DHT22;2607;50.934;6.934;2022-07-21T02:45:17;19.80;99.90
5176;DHT22;2607;50.934;6.934;2022-07-21T02:47:57;19.80;99.90
5176;DHT22;2607;50.934;6.934;2022-07-21T02:50:26;19.80;99.90
5176;DHT22;2607;50.934;6.934;2022-07-21T02:53:00;19.80;99.90
5176;DHT22;2607;50.934;6.934;2022-07-21T02:55:27;19.80;99.90
5176;DHT22;2607;50.934;6.934;2022-07-21T02:58:07;19.80;99.90
5176;DHT22;2607;50.934;6.934;2022-07-21T03:00:35;19.80;99.90
5176;DHT22;2607;50.934;6.934;2022-07-21T03:03:01;19.80;99.90
5176;DHT22;2607;50.934;6.934;2022-07-21T03:05:26;19.80;99.90
5176;DHT22;2607;50.934;6.934;2022-07-21T03:07:52;19.70;99.90
5176;DHT22;2607;50.934;6.934;2022-07-21T03:10:17;19.70;99.90
5176;DHT22;2607;50.934;6.934;2022-07-21T03:12:43;19.70;99.90
5176;DHT22;2607;50.934;6.934;2022-07-21T03:15:09;19.70;99.90
5176;DHT22;2607;50.934;6.934;2022-07-21T03:17:35;19.70;99.90
5176;DHT22;2607;50.934;6.934;2022-07-21T03:20:00;19.70;99.90
5176;DHT22;2607;50.934;6.934;2022-07-21T03:22:26;19.70;99.90
5176;DHT22;2607;50.934;6.934;2022-07-21T03:24:52;19.70;99.90
5176;DHT22;2607;50.934;6.934;2022-07-21T03:27:17;19.70;99.90
5176;DHT22;2607;50.934;6.934;2022-07-21T03:29:43;19.60;99.90
5176;DHT22;2607;50.934;6.934;2022-07-21T03:32:09;19.60;99.90
5176;DHT22;2607;50.934;6.934;2022-07-21T03:34:34;19.60;99.90
5176;DHT22;2607;50.934;6.934;2022-07-21T03:37:00;19.50;99.90
5176;DHT22;2607;50.934;6.934;2022-07-21T03:39:25;19.50;99.90
5176;DHT22;2607;50.934;6.934;2022-07-21T03:41:51;19.50;99.90
5176;DHT22;2607;50.934;6.934;2022-07-21T03:44:16;19.50;99.90
5176;DHT22;2607;50.934;6.934;2022-07-21T03:46:42;19.50;99.90
5176;DHT22;2607;50.934;6.934;2022-07-21T03:49:08;19.40;99.90
5176;DHT22;2607;50.934;6.934;2022-07-21T03:51:33;19.40;99.90
5176;DHT22;2607;50.934;6.934;2022-07-21T03:53:59;19.40;99.90
5176;DHT22;2607;50.934;6.934;2022-07-21T03:56:27;19.40;99.90
5176;DHT22;2607;50.934;6.934;2022-07-21T03:58:53;19.40;99.90
5176;DHT22;2607;50.934;6.934;2022-07-21T04:01:18;19.40;99.90
5176;DHT22;2607;50.934;6.934;2022-07-21T04:03:44;19.30;99.90
5176;DHT22;2607;50.934;6.934;2022-07-21T04:06:09;19.30;99.90
5176;DHT22;2607;50.934;6.934;2022-07-21T04:08:37;19.30;99.90
5176;DHT22;2607;50.934;6.934;2022-07-21T04:11:03;19.30;99.90
5176;DHT22;2607;50.934;6.934;2022-07-21T04:13:28;19.30;99.90
5176;DHT22;2607;50.934;6.934;2022-07-21T04:15:54;19.30;99.90
5176;DHT22;2607;50.934;6.934;2022-07-21T04:18:20;19.30;99.90
5176;DHT22;2607;50.934;6.934;2022-07-21T04:20:45;19.30;99.90
5176;DHT22;2607;50.934;6.934;2022-07-21T04:23:11;19.30;99.90
5176;DHT22;2607;50.934;6.934;2022-07-21T04:25:36;19.30;99.90
5176;DHT22;2607;50.934;6.934;2022-07-21T04:28:04;19.30;99.90
5176;DHT22;2607;50.934;6.934;2022-07-21T04:30:30;19.30;99.90
5176;DHT22;2607;50.934;6.934;2022-07-21T04:32:55;19.30;99.90
5176;DHT22;2607;50.934;6.934;2022-07-21T04:35:21;19.30;99.90
5176;DHT22;2607;50.934;6.934;2022-07-21T04:37:47;19.30;99.90
5176;DHT22;2607;50.934;6.934;2022-07-21T04:40:14;19.30;99.90
5176;DHT22;2607;50.934;6.934;2022-07-21T04:42:40;19.30;99.90
5176;DHT22;2607;50.934;6.934;2022-07-21T04:45:07;19.40;99.90
5176;DHT22;2607;50.934;6.934;2022-07-21T04:47:42;19.30;99.90
5176;DHT22;2607;50.934;6.934;2022-07-21T04:50:09;19.40;99.90
5176;DHT22;2607;50.934;6.934;2022-07-21T04:52:35;19.30;99.90
5176;DHT22;2607;50.934;6.934;2022-07-21T04:55:00;19.30;99.90
5176;DHT22;2607;50.934;6.934;2022-07-21T04:57:26;19.30;99.90
5176;DHT22;2607;50.934;6.934;2022-07-21T04:59:52;19.30;99.90
5176;DHT22;2607;50.934;6.934;2022-07-21T05:02:18;19.40;99.90
5176;DHT22;2607;50.934;6.934;2022-07-21T05:04:43;19.30;99.90
5176;DHT22;2607;50.934;6.934;2022-07-21T05:07:09;19.40;99.90
5176;DHT22;2607;50.934;6.934;2022-07-21T05:09:35;19.40;99.90
5176;DHT22;2607;50.934;6.934;2022-07-21T05:12:00;19.40;99.90
5176;DHT22;2607;50.934;6.934;2022-07-21T05:14:26;19.50;99.90
5176;DHT22;2607;50.934;6.934;2022-07-21T05:16:51;19.50;99.90
5176;DHT22;2607;50.934;6.934;2022-07-21T05:19:17;19.50;99.90
5176;DHT22;2607;50.934;6.934;2022-07-21T05:21:43;19.60;99.90
5176;DHT22;2607;50.934;6.934;2022-07-21T05:24:09;19.60;99.90
5176;DHT22;2607;50.934;6.934;2022-07-21T05:26:35;19.60;99.90
5176;DHT22;2607;50.934;6.934;2022-07-21T05:29:00;19.60;99.90
5176;DHT22;2607;50.934;6.934;2022-07-21T05:31:26;19.60;99.90
5176;DHT22;2607;50.934;6.934;2022-07-21T05:33:51;19.60;99.90
5176;DHT22;2607;50.934;6.934;2022-07-21T05:36:17;19.60;99.90
5176;DHT22;2607;50.934;6.934;2022-07-21T05:38:43;19.60;99.90
5176;DHT22;2607;50.934;6.934;2022-07-21T05:41:09;19.60;99.90
5176;DHT22;2607;50.934;6.934;2022-07-21T05:43:35;19.60;99.90
5176;DHT22;2607;50.934;6.934;2022-07-21T05:46:00;19.60;99.90
5176;DHT22;2607;50.934;6.934;2022-07-21T05:48:26;19.60;99.90
5176;DHT22;2607;50.934;6.934;2022-07-21T05:50:51;19.60;99.90
5176;DHT22;2607;50.934;6.934;2022-07-21T05:53:17;19.60;99.90
5176;DHT22;2607;50.934;6.934;2022-07-21T05:55:43;19.60;99.90
5176;DHT22;2607;50.934;6.934;2022-07-21T05:58:08;19.60;99.90
5176;DHT22;2607;50.934;6.934;2022-07-21T06:00:34;19.60;99.90
5176;DHT22;2607;50.934;6.934;2022-07-21T06:02:59;19.60;99.90
5176;DHT22;2607;50.934;6.934;2022-07-21T06:05:25;19.60;99.90
5176;DHT22;2607;50.934;6.934;2022-07-21T06:07:50;19.60;99.90
5176;DHT22;2607;50.934;6.934;2022-07-21T06:10:16;19.60;99.90
5176;DHT22;2607;50.934;6.934;2022-07-21T06:12:43;19.60;99.90
5176;DHT22;2607;50.934;6.934;2022-07-21T06:15:09;19.50;99.90
5176;DHT22;2607;50.934;6.934;2022-07-21T06:17:42;19.50;99.90
5176;DHT22;2607;50.934;6.934;2022-07-21T06:20:09;19.60;99.90
5176;DHT22;2607;50.934;6.934;2022-07-21T06:22:35;19.50;99.90
5176;DHT22;2607;50.934;6.934;2022-07-21T06:25:01;19.50;99.90
5176;DHT22;2607;50.934;6.934;2022-07-21T06:27:26;19.60;99.90
5176;DHT22;2607;50.934;6.934;2022-07-21T06:29:52;19.50;99.90
5176;DHT22;2607;50.934;6.934;2022-07-21T06:32:18;19.50;99.90
5176;DHT22;2607;50.934;6.934;2022-07-21T06:34:43;19.50;99.90
5176;DHT22;2607;50.934;6.934;2022-07-21T06:37:09;19.50;99.90
5176;DHT22;2607;50.934;6.934;2022-07-21T06:39:35;19.50;99.90
5176;DHT22;2607;50.934;6.934;2022-07-21T06:42:05;19.50;99.90
5176;DHT22;2607;50.934;6.934;2022-07-21T06:44:31;19.40;99.90
5176;DHT22;2607;50.934;6.934;2022-07-21T06:46:56;19.40;99.90
5176;DHT22;2607;50.934;6.934;2022-07-21T06:49:23;19.30;99.90
5176;DHT22;2607;50.934;6.934;2022-07-21T06:51:48;19.30;99.90
5176;DHT22;2607;50.934;6.934;2022-07-21T06:54:14;19.30;99.90
5176;DHT22;2607;50.934;6.934;2022-07-21T06:56:39;19.20;99.90
5176;DHT22;2607;50.934;6.934;2022-07-21T06:59:05;19.20;99.90
5176;DHT22;2607;50.934;6.934;2022-07-21T07:01:31;19.20;99.90
5176;DHT22;2607;50.934;6.934;2022-07-21T07:03:57;19.30;99.90
5176;DHT22;2607;50.934;6.934;2022-07-21T07:06:22;19.30;99.90
5176;DHT22;2607;50.934;6.934;2022-07-21T07:08:48;19.30;99.90
5176;DHT22;2607;50.934;6.934;2022-07-21T07:11:14;19.30;99.90
5176;DHT22;2607;50.934;6.934;2022-07-21T07:13:39;19.30;99.90
5176;DHT22;2607;50.934;6.934;2022-07-21T07:16:05;19.40;99.90
5176;DHT22;2607;50.934;6.934;2022-07-21T07:18:31;19.40;99.90
5176;DHT22;2607;50.934;6.934;2022-07-21T07:20:56;19.50;99.90
5176;DHT22;2607;50.934;6.934;2022-07-21T07:23:22;19.50;99.90
5176;DHT22;2607;50.934;6.934;2022-07-21T07:25:47;19.50;99.90
5176;DHT22;2607;50.934;6.934;2022-07-21T07:28:13;19.60;99.90
5176;DHT22;2607;50.934;6.934;2022-07-21T07:30:39;19.60;99.90
5176;DHT22;2607;50.934;6.934;2022-07-21T07:33:04;19.70;99.90
5176;DHT22;2607;50.934;6.934;2022-07-21T07:35:30;19.70;99.90
5176;DHT22;2607;50.934;6.934;2022-07-21T07:37:55;19.80;99.90
5176;DHT22;2607;50.934;6.934;2022-07-21T07:40:22;19.90;99.90
5176;DHT22;2607;50.934;6.934;2022-07-21T07:42:49;20.00;99.90
5176;DHT22;2607;50.934;6.934;2022-07-21T07:45:14;20.00;99.90
5176;DHT22;2607;50.934;6.934;2022-07-21T07:47:40;20.00;99.90
5176;DHT22;2607;50.934;6.934;2022-07-21T07:50:07;20.10;99.90
5176;DHT22;2607;50.934;6.934;2022-07-21T07:52:37;20.10;99.90
5176;DHT22;2607;50.934;6.934;2022-07-21T07:55:04;20.20;99.90
5176;DHT22;2607;50.934;6.934;2022-07-21T07:57:34;20.30;99.90
5176;DHT22;2607;50.934;6.934;2022-07-21T08:00:00;20.30;99.90
5176;DHT22;2607;50.934;6.934;2022-07-21T08:02:25;20.40;99.90
5176;DHT22;2607;50.934;6.934;2022-07-21T08:04:51;20.50;99.90
5176;DHT22;2607;50.934;6.934;2022-07-21T08:07:17;20.70;99.90
5176;DHT22;2607;50.934;6.934;2022-07-21T08:09:42;20.70;99.90
5176;DHT22;2607;50.934;6.934;2022-07-21T08:12:08;20.80;99.90
5176;DHT22;2607;50.934;6.934;2022-07-21T08:14:33;20.90;99.90
5176;DHT22;2607;50.934;6.934;2022-07-21T08:16:59;20.90;99.90
5176;DHT22;2607;50.934;6.934;2022-07-21T08:19:26;21.00;99.90
5176;DHT22;2607;50.934;6.934;2022-07-21T08:21:52;21.00;99.90
5176;DHT22;2607;50.934;6.934;2022-07-21T08:24:17;21.20;99.90
5176;DHT22;2607;50.934;6.934;2022-07-21T08:26:43;21.30;99.90
5176;DHT22;2607;50.934;6.934;2022-07-21T08:29:10;21.30;99.90
5176;DHT22;2607;50.934;6.934;2022-07-21T08:31:35;21.30;99.90
5176;DHT22;2607;50.934;6.934;2022-07-21T08:34:01;21.30;99.90
5176;DHT22;2607;50.934;6.934;2022-07-21T08:36:26;21.30;99.90
5176;DHT22;2607;50.934;6.934;2022-07-21T08:38:52;21.30;99.90
5176;DHT22;2607;50.934;6.934;2022-07-21T08:41:18;21.30;99.90
5176;DHT22;2607;50.934;6.934;2022-07-21T08:43:43;21.40;99.90
5176;DHT22;2607;50.934;6.934;2022-07-21T08:46:09;21.40;99.90
5176;DHT22;2607;50.934;6.934;2022-07-21T08:48:36;21.40;99.90
5176;DHT22;2607;50.934;6.934;2022-07-21T08:51:02;21.50;99.90
5176;DHT22;2607;50.934;6.934;2022-07-21T08:53:28;21.40;99.90
5176;DHT22;2607;50.934;6.934;2022-07-21T08:55:54;21.40;99.90
5176;DHT22;2607;50.934;6.934;2022-07-21T08:58:20;21.30;99.90
5176;DHT22;2607;50.934;6.934;2022-07-21T09:00:48;21.20;99.90
5176;DHT22;2607;50.934;6.934;2022-07-21T09:03:23;21.20;99.90
5176;DHT22;2607;50.934;6.934;2022-07-21T09:08:31;21.10;99.90
5176;DHT22;2607;50.934;6.934;2022-07-21T09:13:40;21.20;99.90
5176;DHT22;2607;50.934;6.934;2022-07-21T09:16:07;21.30;99.90
5176;DHT22;2607;50.934;6.934;2022-07-21T09:18:33;21.40;99.90
5176;DHT22;2607;50.934;6.934;2022-07-21T09:20:59;21.50;99.90
5176;DHT22;2607;50.934;6.934;2022-07-21T09:23:27;21.50;99.90
5176;DHT22;2607;50.934;6.934;2022-07-21T09:25:54;21.60;99.90
5176;DHT22;2607;50.934;6.934;2022-07-21T09:28:26;21.60;99.90
5176;DHT22;2607;50.934;6.934;2022-07-21T09:31:03;21.60;99.90
5176;DHT22;2607;50.934;6.934;2022-07-21T09:33:41;21.60;99.90
5176;DHT22;2607;50.934;6.934;2022-07-21T09:36:18;21.50;99.90
5176;DHT22;2607;50.934;6.934;2022-07-21T09:41:14;21.60;99.90
5176;DHT22;2607;50.934;6.934;2022-07-21T09:43:45;21.50;99.90
5176;DHT22;2607;50.934;6.934;2022-07-21T09:46:24;21.60;99.90
5176;DHT22;2607;50.934;6.934;2022-07-21T09:48:55;21.60;99.90
5176;DHT22;2607;50.934;6.934;2022-07-21T09:51:28;21.70;99.90
5176;DHT22;2607;50.934;6.934;2022-07-21T09:54:05;21.70;99.90
5176;DHT22;2607;50.934;6.934;2022-07-21T09:56:35;21.60;99.90
5176;DHT22;2607;50.934;6.934;2022-07-21T09:59:02;21.70;99.90
5176;DHT22;2607;50.934;6.934;2022-07-21T10:01:29;21.80;99.90
5176;DHT22;2607;50.934;6.934;2022-07-21T10:03:55;21.80;99.90
5176;DHT22;2607;50.934;6.934;2022-07-21T10:06:27;21.90;99.90
5176;DHT22;2607;50.934;6.934;2022-07-21T10:08:54;21.90;99.90
5176;DHT22;2607;50.934;6.934;2022-07-21T10:11:20;22.00;99.90
5176;DHT22;2607;50.934;6.934;2022-07-21T10:13:46;22.00;99.90
5176;DHT22;2607;50.934;6.934;2022-07-21T10:16:13;22.00;99.90
5176;DHT22;2607;50.934;6.934;2022-07-21T10:24:16;21.90;99.90
5176;DHT22;2607;50.934;6.934;2022-07-21T10:27:03;21.80;99.90
5176;DHT22;2607;50.934;6.934;2022-07-21T10:29:56;21.90;99.90
5176;DHT22;2607;50.934;6.934;2022-07-21T10:32:26;21.80;99.90
5176;DHT22;2607;50.934;6.934;2022-07-21T10:34:54;21.70;99.90
5176;DHT22;2607;50.934;6.934;2022-07-21T10:45:35;21.30;99.90
5176;DHT22;2607;50.934;6.934;2022-07-21T10:48:04;21.20;99.90
5176;DHT22;2607;50.934;6.934;2022-07-21T10:50:41;21.20;99.90
5176;DHT22;2607;50.934;6.934;2022-07-21T10:53:15;21.20;99.90
5176;DHT22;2607;50.934;6.934;2022-07-21T10:55:49;21.20;99.90
5176;DHT22;2607;50.934;6.934;2022-07-21T10:58:16;21.20;99.90
5176;DHT22;2607;50.934;6.934;2022-07-21T11:08:40;21.30;99.90
5176;DHT22;2607;50.934;6.934;2022-07-21T11:11:10;21.30;99.90
5176;DHT22;2607;50.934;6.934;2022-07-21T11:19:43;21.40;99.90
5176;DHT22;2607;50.934;6.934;2022-07-21T11:22:26;21.40;99.90
5176;DHT22;2607;50.934;6.934;2022-07-21T11:25:03;21.30;99.90
5176;DHT22;2607;50.934;6.934;2022-07-21T11:27:31;21.30;99.90
5176;DHT22;2607;50.934;6.934;2022-07-21T11:29:59;21.30;99.90
5176;DHT22;2607;50.934;6.934;2022-07-21T11:32:25;21.30;99.90
5176;DHT22;2607;50.934;6.934;2022-07-21T11:34:57;21.30;99.90
5176;DHT22;2607;50.934;6.934;2022-07-21T11:37:43;21.20;99.90
5176;DHT22;2607;50.934;6.934;2022-07-21T11:40:16;21.20;99.90
5176;DHT22;2607;50.934;6.934;2022-07-21T11:42:44;21.10;99.90
5176;DHT22;2607;50.934;6.934;2022-07-21T11:45:11;21.10;99.90
5176;DHT22;2607;50.934;6.934;2022-07-21T11:47:37;21.00;99.90
5176;DHT22;2607;50.934;6.934;2022-07-21T11:50:09;21.00;99.90
5176;DHT22;2607;50.934;6.934;2022-07-21T11:52:36;20.90;99.90
5176;DHT22;2607;50.934;6.934;2022-07-21T11:55:04;20.80;99.90
5176;DHT22;2607;50.934;6.934;2022-07-21T11:57:31;20.70;99.90
5176;DHT22;2607;50.934;6.934;2022-07-21T11:59:57;20.60;99.90
5176;DHT22;2607;50.934;6.934;2022-07-21T12:02:28;20.50;99.90
5176;DHT22;2607;50.934;6.934;2022-07-21T12:04:57;20.40;99.90
5176;DHT22;2607;50.934;6.934;2022-07-21T12:07:33;20.40;99.90
5176;DHT22;2607;50.934;6.934;2022-07-21T12:10:05;20.30;99.90
5176;DHT22;2607;50.934;6.934;2022-07-21T12:12:37;20.20;99.90
5176;DHT22;2607;50.934;6.934;2022-07-21T12:15:30;20.20;99.90
5176;DHT22;2607;50.934;6.934;2022-07-21T12:18:00;20.10;99.90
5176;DHT22;2607;50.934;6.934;2022-07-21T12:20:27;20.10;99.90
5176;DHT22;2607;50.934;6.934;2022-07-21T12:22:54;20.00;99.90
5176;DHT22;2607;50.934;6.934;2022-07-21T12:25:34;20.00;99.90
5176;DHT22;2607;50.934;6.934;2022-07-21T12:28:00;20.00;99.90
5176;DHT22;2607;50.934;6.934;2022-07-21T12:30:49;19.90;99.90
5176;DHT22;2607;50.934;6.934;2022-07-21T12:33:17;19.90;99.90
5176;DHT22;2607;50.934;6.934;2022-07-21T12:35:57;19.90;99.90
5176;DHT22;2607;50.934;6.934;2022-07-21T12:38:39;19.80;99.90
5176;DHT22;2607;50.934;6.934;2022-07-21T12:41:06;19.80;99.90
5176;DHT22;2607;50.934;6.934;2022-07-21T12:43:32;19.80;99.90
5176;DHT22;2607;50.934;6.934;2022-07-21T12:46:14;19.80;99.90
5176;DHT22;2607;50.934;6.934;2022-07-21T12:48:41;19.70;99.90
5176;DHT22;2607;50.934;6.934;2022-07-21T12:51:11;19.70;99.90
5176;DHT22;2607;50.934;6.934;2022-07-21T12:53:55;19.70;99.90
5176;DHT22;2607;50.934;6.934;2022-07-21T12:56:28;19.70;99.90
5176;DHT22;2607;50.934;6.934;2022-07-21T12:58:57;19.70;99.90
5176;DHT22;2607;50.934;6.934;2022-07-21T13:01:24;19.70;99.90
5176;DHT22;2607;50.934;6.934;2022-07-21T13:03:50;19.70;99.90
5176;DHT22;2607;50.934;6.934;2022-07-21T13:06:16;19.70;99.90
5176;DHT22;2607;50.934;6.934;2022-07-21T13:08:42;19.70;99.90
5176;DHT22;2607;50.934;6.934;2022-07-21T13:11:09;19.70;99.90
5176;DHT22;2607;50.934;6.934;2022-07-21T13:13:36;19.70;99.90
5176;DHT22;2607;50.934;6.934;2022-07-21T13:16:03;19.70;99.90
5176;DHT22;2607;50.934;6.934;2022-07-21T13:18:29;19.70;99.90
5176;DHT22;2607;50.934;6.934;2022-07-21T13:20:55;19.80;99.90
5176;DHT22;2607;50.934;6.934;2022-07-21T13:23:20;19.80;99.90
5176;DHT22;2607;50.934;6.934;2022-07-21T13:25:46;19.80;99.90
5176;DHT22;2607;50.934;6.934;2022-07-21T13:28:13;19.80;99.90
5176;DHT22;2607;50.934;6.934;2022-07-21T13:30:39;19.80;99.90
5176;DHT22;2607;50.934;6.934;2022-07-21T13:33:05;19.80;99.90
5176;DHT22;2607;50.934;6.934;2022-07-21T13:35:30;19.80;99.90
5176;DHT22;2607;50.934;6.934;2022-07-21T13:37:57;19.90;99.90
5176;DHT22;2607;50.934;6.934;2022-07-21T13:40:24;19.90;99.90
5176;DHT22;2607;50.934;6.934;2022-07-21T13:42:50;19.90;99.90
5176;DHT22;2607;50.934;6.934;2022-07-21T13:45:15;19.90;99.90
5176;DHT22;2607;50.934;6.934;2022-07-21T13:47:42;19.90;99.90
5176;DHT22;2607;50.934;6.934;2022-07-21T13:50:08;19.90;99.90
5176;DHT22;2607;50.934;6.934;2022-07-21T13:52:34;20.00;99.90
5176;DHT22;2607;50.934;6.934;2022-07-21T13:55:00;20.00;99.90
5176;DHT22;2607;50.934;6.934;2022-07-21T13:57:26;20.00;99.90
5176;DHT22;2607;50.934;6.934;2022-07-21T13:59:52;19.90;99.90
5176;DHT22;2607;50.934;6.934;2022-07-21T14:02:17;19.90;99.90
5176;DHT22;2607;50.934;6.934;2022-07-21T14:04:43;19.80;99.90
5176;DHT22;2607;50.934;6.934;2022-07-21T14:07:09;19.80;99.90
5176;DHT22;2607;50.934;6.934;2022-07-21T14:09:36;19.80;99.90
5176;DHT22;2607;50.934;6.934;2022-07-21T14:12:02;19.80;99.90
5176;DHT22;2607;50.934;6.934;2022-07-21T14:14:28;19.70;99.90
5176;DHT22;2607;50.934;6.934;2022-07-21T14:16:54;19.70;99.90
5176;DHT22;2607;50.934;6.934;2022-07-21T14:19:20;19.70;99.90
5176;DHT22;2607;50.934;6.934;2022-07-21T14:21:46;19.70;99.90
5176;DHT22;2607;50.934;6.934;2022-07-21T14:24:11;19.60;99.90
5176;DHT22;2607;50.934;6.934;2022-07-21T14:26:55;19.60;99.90
5176;DHT22;2607;50.934;6.934;2022-07-21T14:29:21;19.60;99.90
5176;DHT22;2607;50.934;6.934;2022-07-21T14:31:47;19.60;99.90
5176;DHT22;2607;50.934;6.934;2022-07-21T14:34:12;19.60;99.90
5176;DHT22;2607;50.934;6.934;2022-07-21T14:36:38;19.60;99.90
5176;DHT22;2607;50.934;6.934;2022-07-21T14:39:04;19.60;99.90
5176;DHT22;2607;50.934;6.934;2022-07-21T14:41:29;19.60;99.90
5176;DHT22;2607;50.934;6.934;2022-07-21T14:43:55;19.60;99.90
5176;DHT22;2607;50.934;6.934;2022-07-21T14:46:20;19.60;99.90
5176;DHT22;2607;50.934;6.934;2022-07-21T14:48:46;19.60;99.90
5176;DHT22;2607;50.934;6.934;2022-07-21T14:51:11;19.60;99.90
5176;DHT22;2607;50.934;6.934;2022-07-21T14:53:37;19.60;99.90
5176;DHT22;2607;50.934;6.934;2022-07-21T14:56:03;19.60;99.90
5176;DHT22;2607;50.934;6.934;2022-07-21T14:58:28;19.50;99.90
5176;DHT22;2607;50.934;6.934;2022-07-21T15:00:54;19.50;99.90
5176;DHT22;2607;50.934;6.934;2022-07-21T15:03:20;19.50;99.90
5176;DHT22;2607;50.934;6.934;2022-07-21T15:05:45;19.40;99.90
5176;DHT22;2607;50.934;6.934;2022-07-21T15:08:11;19.40;99.90
5176;DHT22;2607;50.934;6.934;2022-07-21T15:10:38;19.40;99.90
5176;DHT22;2607;50.934;6.934;2022-07-21T15:13:04;19.40;99.90
5176;DHT22;2607;50.934;6.934;2022-07-21T15:15:29;19.40;99.90
5176;DHT22;2607;50.934;6.934;2022-07-21T15:17:55;19.40;99.90
5176;DHT22;2607;50.934;6.934;2022-07-21T15:20:20;19.40;99.90
5176;DHT22;2607;50.934;6.934;2022-07-21T15:22:46;19.40;99.90
5176;DHT22;2607;50.934;6.934;2022-07-21T15:25:12;19.40;99.90
5176;DHT22;2607;50.934;6.934;2022-07-21T15:27:39;19.50;99.90
5176;DHT22;2607;50.934;6.934;2022-07-21T15:30:06;19.60;99.90
5176;DHT22;2607;50.934;6.934;2022-07-21T15:32:32;19.60;99.90
5176;DHT22;2607;50.934;6.934;2022-07-21T15:34:58;19.60;99.90
5176;DHT22;2607;50.934;6.934;2022-07-21T15:37:24;19.60;99.90
5176;DHT22;2607;50.934;6.934;2022-07-21T15:39:49;19.70;99.90
5176;DHT22;2607;50.934;6.934;2022-07-21T15:42:15;19.70;99.90
5176;DHT22;2607;50.934;6.934;2022-07-21T15:44:40;19.70;99.90
5176;DHT22;2607;50.934;6.934;2022-07-21T15:47:07;19.70;99.90
5176;DHT22;2607;50.934;6.934;2022-07-21T15:49:33;19.60;99.90
5176;DHT22;2607;50.934;6.934;2022-07-21T15:51:59;19.60;99.90
5176;DHT22;2607;50.934;6.934;2022-07-21T15:54:25;19.60;99.90
5176;DHT22;2607;50.934;6.934;2022-07-21T15:56:51;19.60;99.90
5176;DHT22;2607;50.934;6.934;2022-07-21T15:59:17;19.60;99.90
5176;DHT22;2607;50.934;6.934;2022-07-21T16:02:07;19.60;99.90
5176;DHT22;2607;50.934;6.934;2022-07-21T16:04:33;19.60;99.90
5176;DHT22;2607;50.934;6.934;2022-07-21T16:07:00;19.60;99.90
5176;DHT22;2607;50.934;6.934;2022-07-21T16:09:26;19.70;99.90
5176;DHT22;2607;50.934;6.934;2022-07-21T16:11:51;19.60;99.90
5176;DHT22;2607;50.934;6.934;2022-07-21T16:14:17;19.70;99.90
5176;DHT22;2607;50.934;6.934;2022-07-21T16:16:43;19.60;99.90
5176;DHT22;2607;50.934;6.934;2022-07-21T16:19:08;19.60;99.90
5176;DHT22;2607;50.934;6.934;2022-07-21T16:21:34;19.50;99.90
5176;DHT22;2607;50.934;6.934;2022-07-21T16:23:59;19.50;99.90
5176;DHT22;2607;50.934;6.934;2022-07-21T16:26:25;19.50;99.90
5176;DHT22;2607;50.934;6.934;2022-07-21T16:28:52;19.50;99.90
5176;DHT22;2607;50.934;6.934;2022-07-21T16:31:18;19.50;99.90
5176;DHT22;2607;50.934;6.934;2022-07-21T16:33:46;19.40;99.90
5176;DHT22;2607;50.934;6.934;2022-07-21T16:36:12;19.40;99.90
5176;DHT22;2607;50.934;6.934;2022-07-21T16:38:39;19.30;99.90